Time;durP1;ratioP1;P1;durP2;ratioP2;P2;SDS_P1;SDS_P2;PMS_P1;PMS_P2;Temp;Humidity;BMP_temperature;BMP_pressure;BME280_temperature;BME280_humidity;BME280_pressure;Samples;Min_cycle;Max_cycle;Signal;HPM_P1;HPM_P2
2021/01/13 00:01:17;;;;;;;;;;;3.90;99.90;;;;;;5053034;28;19920;-59
2021/01/13 00:04:21;;;;;;;;;;;3.90;99.90;;;;;;5054123;28;19935;-59
2021/01/13 00:07:25;;;;;;;;;;;4.00;99.90;;;;;;5040232;28;20026;-59
2021/01/13 00:10:30;;;;;;;;;;;3.90;99.90;;;;;;5052920;28;20319;-59
2021/01/13 00:13:34;;;;;;;;;;;4.10;99.90;;;;;;5052578;28;19920;-56
2021/01/13 00:16:38;;;;;;;;;;;4.00;99.90;;;;;;5053391;28;19954;-58
2021/01/13 00:19:42;;;;;;;;;;;3.40;99.90;;;;;;5043253;28;19923;-57
2021/01/13 00:22:46;;;;;;;;;;;3.30;99.90;;;;;;5039500;28;19920;-59
2021/01/13 00:25:51;;;;;;;;;;;3.40;99.90;;;;;;5052679;28;19924;-60
2021/01/13 00:28:55;;;;;;;;;;;3.60;99.90;;;;;;5052540;28;19924;-59
2021/01/13 00:31:59;;;;;;;;;;;3.60;99.90;;;;;;5051891;28;19924;-58
2021/01/13 00:35:04;;;;;;;;;;;3.30;99.90;;;;;;5042298;28;19936;-59
2021/01/13 00:38:09;;;;;;;;;;;3.10;99.90;;;;;;5039698;28;20310;-59
2021/01/13 00:41:13;;;;;;;;;;;3.20;99.90;;;;;;5052362;28;19920;-57
2021/01/13 00:44:17;;;;;;;;;;;3.30;99.90;;;;;;5048433;28;19924;-59
2021/01/13 00:47:21;;;;;;;;;;;3.30;99.90;;;;;;5052152;28;19919;-59
2021/01/13 00:50:25;;;;;;;;;;;3.30;99.90;;;;;;5051262;28;19924;-60
2021/01/13 00:53:29;;;;;;;;;;;3.10;99.90;;;;;;5042315;28;19924;-60
2021/01/13 00:56:34;;;;;;;;;;;2.80;99.90;;;;;;5033576;28;19920;-59
2021/01/13 00:59:38;;;;;;;;;;;2.90;99.90;;;;;;5051759;28;19943;-59
2021/01/13 01:02:42;;;;;;;;;;;3.00;99.90;;;;;;5051706;28;19916;-60
2021/01/13 01:05:45;;;;;;;;;;;2.70;99.90;;;;;;5038866;28;19920;-60
2021/01/13 01:08:50;;;;;;;;;;;2.50;99.90;;;;;;5047444;28;20059;-59
2021/01/13 01:11:54;;;;;;;;;;;2.20;99.90;;;;;;5049107;28;20335;-61
2021/01/13 01:14:58;;;;;;;;;;;2.40;99.90;;;;;;5049812;28;19923;-59
2021/01/13 01:18:03;;;;;;;;;;;2.70;99.90;;;;;;5051144;28;19932;-59
2021/01/13 01:21:07;;;;;;;;;;;2.50;99.90;;;;;;5051497;28;20394;-57
2021/01/13 01:24:11;;;;;;;;;;;2.50;99.90;;;;;;5041553;28;19935;-58
2021/01/13 01:27:16;;;;;;;;;;;2.50;99.90;;;;;;5040095;28;19923;-58
2021/01/13 01:30:21;;;;;;;;;;;2.60;99.90;;;;;;5050968;28;19936;-58
2021/01/13 01:33:25;;;;;;;;;;;2.70;99.90;;;;;;5050726;28;19942;-59
2021/01/13 01:36:29;;;;;;;;;;;2.80;99.90;;;;;;5051318;28;19919;-58
2021/01/13 01:39:33;;;;;;;;;;;2.60;99.90;;;;;;5043012;28;19920;-59
2021/01/13 01:42:48;;;;;;;;;;;2.70;99.90;;;;;;5040068;28;20353;-57
2021/01/13 01:45:52;;;;;;;;;;;2.50;99.90;;;;;;5050584;28;20398;-58
2021/01/13 01:48:58;;;;;;;;;;;2.60;99.90;;;;;;5050932;28;19920;-57
2021/01/13 01:52:10;;;;;;;;;;;2.20;99.90;;;;;;5050088;28;20402;-59
2021/01/13 01:55:14;;;;;;;;;;;2.30;99.90;;;;;;5046070;28;20296;-58
2021/01/13 01:58:28;;;;;;;;;;;2.50;99.90;;;;;;5046123;28;19924;-57
2021/01/13 02:01:36;;;;;;;;;;;2.60;99.90;;;;;;5050558;28;20303;-57
2021/01/13 02:04:44;;;;;;;;;;;2.70;99.90;;;;;;5042417;28;20394;-59
2021/01/13 02:07:49;;;;;;;;;;;2.70;99.90;;;;;;5050573;28;19928;-59
2021/01/13 02:10:53;;;;;;;;;;;2.20;99.90;;;;;;5043485;28;19924;-58
2021/01/13 02:13:57;;;;;;;;;;;2.10;99.90;;;;;;5049852;28;20315;-59
2021/01/13 02:17:03;;;;;;;;;;;2.00;99.90;;;;;;5050428;28;19923;-59
2021/01/13 02:20:08;;;;;;;;;;;2.10;99.90;;;;;;5050588;28;19920;-59
2021/01/13 02:23:23;;;;;;;;;;;2.30;99.90;;;;;;5050461;28;20402;-60
2021/01/13 02:26:31;;;;;;;;;;;2.40;99.90;;;;;;5050586;28;20411;-59
2021/01/13 02:29:43;;;;;;;;;;;2.60;99.90;;;;;;5037150;28;19923;-58
2021/01/13 02:32:49;;;;;;;;;;;2.60;99.90;;;;;;5050016;28;19958;-60
2021/01/13 02:36:06;;;;;;;;;;;2.70;99.90;;;;;;5050300;28;20307;-58
2021/01/13 02:39:13;;;;;;;;;;;2.70;99.90;;;;;;5050137;28;19928;-57
2021/01/13 02:42:26;;;;;;;;;;;2.70;99.90;;;;;;5049883;28;20406;-58
2021/01/13 02:45:34;;;;;;;;;;;2.80;99.90;;;;;;5041862;28;20390;-57
2021/01/13 02:48:40;;;;;;;;;;;2.70;99.90;;;;;;5039902;28;20299;-60
2021/01/13 02:51:49;;;;;;;;;;;2.80;99.90;;;;;;5040434;28;19928;-60
2021/01/13 02:55:01;;;;;;;;;;;2.90;99.90;;;;;;5068709;28;19951;-74
2021/01/13 02:58:05;;;;;;;;;;;3.00;99.90;;;;;;5067866;28;20540;-74
2021/01/13 03:01:10;;;;;;;;;;;3.00;99.90;;;;;;5064510;28;20366;-74
2021/01/13 03:04:14;;;;;;;;;;;3.20;99.90;;;;;;5061062;28;20259;-74
2021/01/13 03:07:25;;;;;;;;;;;3.20;99.90;;;;;;5071211;28;19931;-74
2021/01/13 03:10:29;;;;;;;;;;;3.30;99.90;;;;;;5069905;28;19931;-74
2021/01/13 03:13:35;;;;;;;;;;;3.10;99.90;;;;;;5069784;28;19931;-74
2021/01/13 03:16:43;;;;;;;;;;;2.90;99.90;;;;;;5071349;28;19923;-74
2021/01/13 03:20:08;;;;;;;;;;;3.00;99.90;;;;;;5070578;28;19920;-74
2021/01/13 03:23:13;;;;;;;;;;;3.10;99.90;;;;;;5062917;28;19955;-73
2021/01/13 03:26:21;;;;;;;;;;;3.30;99.90;;;;;;5057967;28;19924;-74
2021/01/13 03:29:26;;;;;;;;;;;3.20;99.90;;;;;;5057453;28;19920;-74
2021/01/13 03:32:47;;;;;;;;;;;3.20;99.90;;;;;;5070395;28;19928;-74
2021/01/13 03:36:05;;;;;;;;;;;3.50;99.90;;;;;;5069977;28;19920;-73
2021/01/13 03:39:09;;;;;;;;;;;3.50;99.90;;;;;;5070421;28;19935;-74
2021/01/13 03:42:16;;;;;;;;;;;3.50;99.90;;;;;;5070053;28;19924;-74
2021/01/13 03:45:26;;;;;;;;;;;3.40;99.90;;;;;;5069699;28;20283;-74
2021/01/13 03:48:33;;;;;;;;;;;3.40;99.90;;;;;;5069940;28;19924;-74
2021/01/13 03:51:48;;;;;;;;;;;3.40;99.90;;;;;;5068948;28;19924;-74
2021/01/13 03:54:54;;;;;;;;;;;3.40;99.90;;;;;;5068952;28;19939;-75
2021/01/13 03:57:58;;;;;;;;;;;3.40;99.90;;;;;;5069160;28;19943;-74
2021/01/13 04:01:12;;;;;;;;;;;3.40;99.90;;;;;;5069899;28;20267;-74
2021/01/13 04:04:21;;;;;;;;;;;3.40;99.90;;;;;;5070643;28;19923;-74
2021/01/13 04:07:33;;;;;;;;;;;3.50;99.90;;;;;;5070235;28;19936;-74
2021/01/13 04:10:37;;;;;;;;;;;3.50;99.90;;;;;;5071907;28;19920;-74
2021/01/13 04:13:43;;;;;;;;;;;3.60;99.90;;;;;;5072957;28;19939;-74
2021/01/13 04:16:46;;;;;;;;;;;3.80;99.90;;;;;;5074066;28;19920;-74
2021/01/13 04:19:51;;;;;;;;;;;3.60;99.90;;;;;;5073621;28;19924;-74
2021/01/13 04:22:55;;;;;;;;;;;3.10;99.90;;;;;;5073862;28;20021;-74
2021/01/13 04:25:59;;;;;;;;;;;3.10;99.90;;;;;;5073565;28;19923;-74
2021/01/13 04:29:03;;;;;;;;;;;3.10;99.90;;;;;;5072420;28;19919;-74
2021/01/13 04:32:08;;;;;;;;;;;2.90;99.90;;;;;;5072996;28;19923;-75
2021/01/13 04:35:12;;;;;;;;;;;2.90;99.90;;;;;;5073403;28;19920;-74
2021/01/13 04:38:20;;;;;;;;;;;2.90;99.90;;;;;;5073513;28;19920;-74
2021/01/13 04:41:28;;;;;;;;;;;3.00;99.90;;;;;;5073158;28;19924;-74
2021/01/13 04:44:42;;;;;;;;;;;3.00;99.90;;;;;;5072515;28;19924;-74
2021/01/13 04:47:46;;;;;;;;;;;3.10;99.90;;;;;;5073529;28;19923;-74
2021/01/13 04:50:51;;;;;;;;;;;3.10;99.90;;;;;;5072679;28;19919;-74
2021/01/13 04:53:55;;;;;;;;;;;3.20;99.90;;;;;;5072102;28;20374;-74
2021/01/13 04:57:31;;;;;;;;;;;3.20;99.90;;;;;;5072773;28;20690;-74
2021/01/13 05:00:54;;;;;;;;;;;3.00;99.90;;;;;;5054993;28;19935;-74
2021/01/13 05:04:18;;;;;;;;;;;3.10;99.90;;;;;;5071175;28;19923;-74
2021/01/13 05:07:33;;;;;;;;;;;3.00;99.90;;;;;;5057490;28;19923;-74
2021/01/13 05:10:41;;;;;;;;;;;2.90;99.90;;;;;;5067953;28;20263;-74
2021/01/13 05:13:46;;;;;;;;;;;3.10;99.90;;;;;;5059612;28;20413;-74
2021/01/13 05:16:50;;;;;;;;;;;3.20;99.90;;;;;;5072730;28;19920;-74
2021/01/13 05:20:08;;;;;;;;;;;3.10;99.90;;;;;;5072133;28;20378;-74
2021/01/13 05:23:13;;;;;;;;;;;3.20;99.90;;;;;;5072390;28;19919;-74
2021/01/13 05:26:24;;;;;;;;;;;3.20;99.90;;;;;;5071993;28;19935;-74
2021/01/13 05:29:31;;;;;;;;;;;3.20;99.90;;;;;;5070675;28;19919;-74
2021/01/13 05:32:39;;;;;;;;;;;3.20;99.90;;;;;;5069323;28;19939;-74
2021/01/13 05:35:45;;;;;;;;;;;3.30;99.90;;;;;;5070997;28;19920;-73
2021/01/13 05:38:58;;;;;;;;;;;3.40;99.90;;;;;;5071307;28;19923;-74
2021/01/13 05:42:03;;;;;;;;;;;3.40;99.90;;;;;;5071315;28;19965;-74
2021/01/13 05:45:07;;;;;;;;;;;3.40;99.90;;;;;;5069828;28;19932;-74
2021/01/13 05:48:16;;;;;;;;;;;3.40;99.90;;;;;;5059617;28;19923;-74
2021/01/13 05:51:29;;;;;;;;;;;3.40;99.90;;;;;;5068814;28;19923;-74
2021/01/13 05:54:37;;;;;;;;;;;3.40;99.90;;;;;;5069226;28;19939;-74
2021/01/13 05:57:52;;;;;;;;;;;3.40;99.90;;;;;;5057335;28;19923;-74
2021/01/13 06:00:57;;;;;;;;;;;3.50;99.90;;;;;;5064431;28;19920;-74
2021/01/13 06:04:04;;;;;;;;;;;3.60;99.90;;;;;;5054135;28;19924;-74
2021/01/13 06:07:11;;;;;;;;;;;3.70;99.90;;;;;;5060010;28;19939;-73
2021/01/13 06:10:16;;;;;;;;;;;3.50;99.90;;;;;;5070078;28;19920;-73
2021/01/13 06:13:24;;;;;;;;;;;3.30;99.90;;;;;;5069458;28;19924;-74
2021/01/13 06:16:29;;;;;;;;;;;3.40;99.90;;;;;;5065928;28;19924;-74
2021/01/13 06:19:36;;;;;;;;;;;3.30;99.90;;;;;;5066999;28;20383;-74
2021/01/13 06:22:41;;;;;;;;;;;3.40;99.90;;;;;;5068541;28;19932;-74
2021/01/13 06:25:51;;;;;;;;;;;3.40;99.90;;;;;;5054268;28;20287;-74
2021/01/13 06:29:35;;;;;;;;;;;3.40;99.90;;;;;;5067029;28;19927;-74
2021/01/13 06:32:52;;;;;;;;;;;3.40;99.90;;;;;;5064842;28;19928;-74
2021/01/13 06:36:06;;;;;;;;;;;3.50;99.90;;;;;;5069358;28;19919;-74
2021/01/13 06:39:11;;;;;;;;;;;3.20;99.90;;;;;;5068502;28;19919;-74
2021/01/13 06:42:27;;;;;;;;;;;3.20;99.90;;;;;;5064111;28;19928;-74
2021/01/13 06:45:32;;;;;;;;;;;3.20;99.90;;;;;;5061802;28;19924;-74
2021/01/13 06:48:36;;;;;;;;;;;3.30;99.90;;;;;;5068973;28;19919;-74
2021/01/13 06:51:43;;;;;;;;;;;3.30;99.90;;;;;;5065849;28;19923;-74
2021/01/13 06:54:48;;;;;;;;;;;3.20;99.90;;;;;;5062231;28;20428;-74
2021/01/13 06:57:54;;;;;;;;;;;3.20;99.90;;;;;;5065624;28;19920;-74
2021/01/13 07:01:03;;;;;;;;;;;3.20;99.90;;;;;;5064506;28;19940;-74
2021/01/13 07:04:08;;;;;;;;;;;3.20;99.90;;;;;;5067260;28;20402;-74
2021/01/13 07:07:13;;;;;;;;;;;3.20;99.90;;;;;;5067658;28;19918;-74
2021/01/13 07:10:17;;;;;;;;;;;3.20;99.90;;;;;;5065600;28;19920;-74
2021/01/13 07:13:22;;;;;;;;;;;3.20;99.90;;;;;;5068094;28;19927;-74
2021/01/13 07:16:28;;;;;;;;;;;3.20;99.90;;;;;;5068720;28;20401;-74
2021/01/13 07:19:32;;;;;;;;;;;3.30;99.90;;;;;;5069201;28;19939;-74
2021/01/13 07:22:37;;;;;;;;;;;3.30;99.90;;;;;;5068765;28;19935;-74
2021/01/13 07:25:45;;;;;;;;;;;3.30;99.90;;;;;;5067338;28;19920;-74
2021/01/13 07:28:50;;;;;;;;;;;3.40;99.90;;;;;;5056401;28;19923;-74
2021/01/13 07:31:55;;;;;;;;;;;3.40;99.90;;;;;;5051655;28;19923;-75
2021/01/13 07:35:04;;;;;;;;;;;3.50;99.90;;;;;;5061743;28;19932;-74
2021/01/13 07:38:11;;;;;;;;;;;3.60;99.90;;;;;;5059371;28;20383;-74
2021/01/13 07:41:27;;;;;;;;;;;3.60;99.90;;;;;;5061001;28;20433;-74
2021/01/13 07:44:38;;;;;;;;;;;3.70;99.90;;;;;;5061325;28;20535;-74
2021/01/13 07:47:50;;;;;;;;;;;3.70;99.90;;;;;;5073478;28;19919;-74
2021/01/13 07:51:04;;;;;;;;;;;3.70;99.90;;;;;;5057996;28;19919;-74
2021/01/13 07:54:09;;;;;;;;;;;3.70;99.90;;;;;;5071537;28;19927;-74
2021/01/13 07:57:20;;;;;;;;;;;3.70;99.90;;;;;;5069195;28;19948;-74
2021/01/13 08:00:36;;;;;;;;;;;3.70;99.90;;;;;;5059855;28;19935;-74
2021/01/13 08:03:41;;;;;;;;;;;3.70;99.90;;;;;;5073743;28;20398;-74
2021/01/13 08:06:52;;;;;;;;;;;3.80;99.90;;;;;;5073089;28;19920;-73
2021/01/13 08:09:58;;;;;;;;;;;3.90;99.90;;;;;;5060432;28;19928;-73
2021/01/13 08:13:21;;;;;;;;;;;4.00;99.90;;;;;;5071450;28;19927;-74
2021/01/13 08:16:45;;;;;;;;;;;4.00;99.90;;;;;;5073221;28;19924;-74
2021/01/13 08:19:52;;;;;;;;;;;4.00;99.90;;;;;;5072486;28;19919;-74
2021/01/13 08:23:08;;;;;;;;;;;4.00;99.90;;;;;;5072155;28;19919;-74
2021/01/13 08:26:15;;;;;;;;;;;4.20;99.90;;;;;;5057807;28;19924;-74
2021/01/13 08:29:21;;;;;;;;;;;4.20;99.90;;;;;;5070445;28;19928;-74
2021/01/13 08:32:31;;;;;;;;;;;4.30;99.90;;;;;;5069784;28;20314;-74
2021/01/13 08:35:36;;;;;;;;;;;4.30;99.90;;;;;;5070588;28;19919;-74
2021/01/13 08:38:59;;;;;;;;;;;4.40;99.90;;;;;;5069788;28;20374;-74
2021/01/13 08:42:23;;;;;;;;;;;4.50;99.90;;;;;;5069991;28;19919;-74
2021/01/13 08:45:34;;;;;;;;;;;4.60;99.90;;;;;;5070630;28;19935;-74
2021/01/13 08:48:39;;;;;;;;;;;4.70;99.90;;;;;;5070178;28;19920;-74
2021/01/13 08:52:03;;;;;;;;;;;4.80;99.90;;;;;;5068725;28;19931;-74
2021/01/13 08:55:14;;;;;;;;;;;4.70;99.90;;;;;;5067714;28;19924;-74
2021/01/13 08:58:26;;;;;;;;;;;4.50;99.90;;;;;;5066011;28;20401;-74
2021/01/13 09:01:37;;;;;;;;;;;4.30;99.90;;;;;;5053181;28;19920;-74
2021/01/13 09:04:47;;;;;;;;;;;4.50;99.90;;;;;;5059150;28;19936;-74
2021/01/13 09:07:53;;;;;;;;;;;4.60;99.90;;;;;;5059345;28;19923;-74
2021/01/13 09:10:57;;;;;;;;;;;4.70;99.90;;;;;;5066542;28;20284;-74
2021/01/13 09:14:19;;;;;;;;;;;4.80;99.90;;;;;;5060977;28;19939;-74
2021/01/13 09:17:26;;;;;;;;;;;4.90;99.90;;;;;;5069586;28;20271;-74
2021/01/13 09:20:31;;;;;;;;;;;5.00;99.90;;;;;;5055674;28;19925;-74
2021/01/13 09:23:39;;;;;;;;;;;5.00;99.90;;;;;;5056688;28;19927;-74
2021/01/13 09:26:50;;;;;;;;;;;4.60;99.90;;;;;;5064519;28;19940;-74
2021/01/13 09:29:54;;;;;;;;;;;4.50;99.90;;;;;;5050871;28;19928;-74
2021/01/13 09:32:59;;;;;;;;;;;4.80;99.90;;;;;;5054084;28;20395;-74
2021/01/13 09:36:03;;;;;;;;;;;5.00;99.90;;;;;;5070939;28;19935;-74
2021/01/13 09:39:15;;;;;;;;;;;5.00;99.90;;;;;;5066333;28;19987;-75
2021/01/13 09:42:22;;;;;;;;;;;4.70;99.90;;;;;;5068741;28;19919;-74
2021/01/13 09:45:37;;;;;;;;;;;4.90;99.90;;;;;;5051881;28;19927;-74
2021/01/13 09:48:55;;;;;;;;;;;5.20;99.90;;;;;;5054375;28;20268;-74
2021/01/13 09:52:10;;;;;;;;;;;5.40;99.90;;;;;;5052806;28;19971;-73
2021/01/13 09:55:14;;;;;;;;;;;5.70;99.90;;;;;;5065631;28;19924;-73
2021/01/13 09:58:27;;;;;;;;;;;5.80;99.90;;;;;;5064918;28;19919;-74
2021/01/13 10:01:33;;;;;;;;;;;5.90;99.90;;;;;;5069777;28;19923;-73
2021/01/13 10:04:37;;;;;;;;;;;6.20;99.90;;;;;;5064024;28;19931;-74
2021/01/13 10:07:44;;;;;;;;;;;6.30;99.90;;;;;;5068573;28;19923;-74
2021/01/13 10:10:48;;;;;;;;;;;6.20;99.90;;;;;;5070114;28;20935;-74
2021/01/13 10:13:57;;;;;;;;;;;6.30;99.90;;;;;;5069816;28;19927;-73
2021/01/13 10:17:02;;;;;;;;;;;6.40;99.90;;;;;;5069962;28;19920;-74
2021/01/13 10:20:12;;;;;;;;;;;6.40;99.90;;;;;;5063672;28;19924;-74
2021/01/13 10:23:17;;;;;;;;;;;6.60;99.90;;;;;;5068207;28;20295;-73
2021/01/13 10:26:21;;;;;;;;;;;6.90;99.90;;;;;;5069501;28;19924;-73
2021/01/13 10:29:25;;;;;;;;;;;7.10;99.90;;;;;;5066885;28;19920;-73
2021/01/13 10:32:29;;;;;;;;;;;6.80;99.90;;;;;;5068465;28;19932;-74
2021/01/13 10:35:36;;;;;;;;;;;6.40;99.90;;;;;;5070289;28;19941;-74
2021/01/13 10:38:42;;;;;;;;;;;6.70;99.90;;;;;;5069316;28;19923;-74
2021/01/13 10:41:48;;;;;;;;;;;6.90;99.90;;;;;;5067494;28;19923;-74
2021/01/13 10:44:54;;;;;;;;;;;7.20;99.90;;;;;;5068565;28;19920;-73
2021/01/13 10:47:59;;;;;;;;;;;7.30;99.90;;;;;;5064914;28;20465;-73
2021/01/13 10:51:10;;;;;;;;;;;7.50;99.90;;;;;;5067160;28;20271;-73
2021/01/13 10:54:16;;;;;;;;;;;7.80;99.90;;;;;;5059838;28;19927;-74
2021/01/13 10:57:27;;;;;;;;;;;8.30;99.90;;;;;;5066435;28;19924;-74
2021/01/13 11:00:31;;;;;;;;;;;8.60;99.90;;;;;;5054801;28;20402;-74
2021/01/13 11:03:36;;;;;;;;;;;8.80;99.90;;;;;;5069656;28;19920;-73
2021/01/13 11:06:42;;;;;;;;;;;9.10;99.90;;;;;;5051574;28;19919;-74
2021/01/13 11:09:48;;;;;;;;;;;9.40;99.90;;;;;;5061885;28;20275;-74
2021/01/13 11:13:02;;;;;;;;;;;9.60;99.90;;;;;;5050432;28;20335;-73
2021/01/13 11:16:06;;;;;;;;;;;10.00;99.90;;;;;;5069103;28;20259;-74
2021/01/13 11:19:12;;;;;;;;;;;10.40;99.90;;;;;;5060456;28;20379;-74
2021/01/13 11:22:18;;;;;;;;;;;10.60;99.90;;;;;;5065681;28;19924;-74
2021/01/13 11:25:43;;;;;;;;;;;9.70;99.90;;;;;;5060822;28;19924;-73
2021/01/13 11:28:49;;;;;;;;;;;9.60;99.90;;;;;;5058292;28;19931;-73
2021/01/13 11:31:54;;;;;;;;;;;9.80;99.90;;;;;;5059102;28;19919;-73
2021/01/13 11:34:58;;;;;;;;;;;9.20;99.90;;;;;;5059225;28;19924;-74
2021/01/13 11:38:05;;;;;;;;;;;9.40;99.90;;;;;;5062356;28;20275;-73
2021/01/13 11:41:16;;;;;;;;;;;9.80;99.90;;;;;;5059821;28;20548;-74
2021/01/13 11:44:24;;;;;;;;;;;10.00;99.90;;;;;;5064666;28;19945;-74
2021/01/13 11:47:32;;;;;;;;;;;10.10;99.90;;;;;;5059486;28;19932;-73
2021/01/13 11:50:36;;;;;;;;;;;10.20;99.90;;;;;;5058604;28;19920;-74
2021/01/13 11:53:44;;;;;;;;;;;10.40;99.90;;;;;;5058680;28;20557;-74
2021/01/13 11:56:48;;;;;;;;;;;11.00;99.90;;;;;;5065999;28;19923;-74
2021/01/13 11:59:53;;;;;;;;;;;12.30;99.90;;;;;;5074757;28;19923;-74
2021/01/13 12:02:59;;;;;;;;;;;15.40;99.90;;;;;;5075047;28;19913;-75
2021/01/13 12:06:06;;;;;;;;;;;17.60;99.90;;;;;;5062310;28;20271;-74
2021/01/13 12:09:17;;;;;;;;;;;19.90;98.90;;;;;;5076097;28;20373;-74
2021/01/13 12:12:28;;;;;;;;;;;20.30;96.40;;;;;;5074901;28;19917;-75
2021/01/13 12:15:32;;;;;;;;;;;19.40;96.50;;;;;;5076316;28;20365;-74
2021/01/13 12:18:42;;;;;;;;;;;18.30;97.70;;;;;;5075017;28;19920;-75
2021/01/13 12:21:46;;;;;;;;;;;17.40;98.90;;;;;;5071194;28;19920;-75
2021/01/13 12:24:50;;;;;;;;;;;17.60;98.20;;;;;;5075259;28;19924;-75
2021/01/13 12:28:07;;;;;;;;;;;16.70;99.70;;;;;;5074121;28;19923;-74
2021/01/13 12:31:11;;;;;;;;;;;15.90;99.90;;;;;;5070910;28;19920;-74
2021/01/13 12:34:15;;;;;;;;;;;15.00;99.90;;;;;;5062739;28;19931;-74
2021/01/13 12:37:20;;;;;;;;;;;14.70;99.90;;;;;;5068572;28;21303;-74
2021/01/13 12:40:28;;;;;;;;;;;14.40;99.90;;;;;;5065440;28;19936;-74
2021/01/13 12:43:36;;;;;;;;;;;14.00;99.90;;;;;;5068947;28;19931;-74
2021/01/13 12:47:08;;;;;;;;;;;14.60;99.90;;;;;;5070472;28;19920;-74
2021/01/13 12:50:12;;;;;;;;;;;15.50;99.90;;;;;;5068794;28;19924;-75
2021/01/13 12:53:16;;;;;;;;;;;16.60;99.90;;;;;;5067002;28;19931;-75
2021/01/13 12:56:21;;;;;;;;;;;16.70;99.90;;;;;;5067505;28;19913;-74
2021/01/13 12:59:27;;;;;;;;;;;17.80;99.90;;;;;;5069196;28;19919;-74
2021/01/13 13:02:32;;;;;;;;;;;19.50;99.30;;;;;;5068090;28;19985;-74
2021/01/13 13:05:36;;;;;;;;;;;22.70;94.60;;;;;;5067765;28;20366;-75
2021/01/13 13:08:40;;;;;;;;;;;23.10;90.50;;;;;;5066557;28;19983;-74
2021/01/13 13:11:45;;;;;;;;;;;24.50;87.30;;;;;;5065714;28;19919;-75
2021/01/13 13:14:49;;;;;;;;;;;25.60;80.50;;;;;;5066560;28;19927;-73
2021/01/13 13:17:53;;;;;;;;;;;25.80;75.50;;;;;;5070343;28;20319;-75
2021/01/13 13:20:58;;;;;;;;;;;26.00;73.90;;;;;;5070133;28;19935;-74
2021/01/13 13:24:03;;;;;;;;;;;26.90;71.00;;;;;;5069722;28;19917;-76
2021/01/13 13:27:09;;;;;;;;;;;26.50;68.30;;;;;;5072137;28;19927;-74
2021/01/13 13:30:14;;;;;;;;;;;26.50;67.40;;;;;;5068248;28;19923;-74
2021/01/13 13:33:18;;;;;;;;;;;26.50;67.70;;;;;;5068455;28;19951;-75
2021/01/13 13:36:21;;;;;;;;;;;27.20;65.60;;;;;;5071362;28;19919;-75
2021/01/13 13:39:25;;;;;;;;;;;27.70;65.00;;;;;;5070557;28;20433;-75
2021/01/13 13:42:32;;;;;;;;;;;26.90;64.30;;;;;;5068638;28;19920;-75
2021/01/13 13:45:36;;;;;;;;;;;26.00;64.70;;;;;;5069015;28;19916;-75
2021/01/13 13:48:40;;;;;;;;;;;25.60;65.40;;;;;;5069015;28;19924;-75
2021/01/13 13:51:44;;;;;;;;;;;26.10;63.80;;;;;;5067539;28;20359;-75
2021/01/13 13:54:48;;;;;;;;;;;26.60;64.20;;;;;;5068362;28;20310;-75
2021/01/13 13:57:52;;;;;;;;;;;26.70;62.40;;;;;;5069193;28;20481;-75
2021/01/13 14:00:58;;;;;;;;;;;26.40;62.40;;;;;;5069454;28;19919;-75
2021/01/13 14:04:02;;;;;;;;;;;26.20;62.40;;;;;;5057721;28;19931;-75
2021/01/13 14:07:06;;;;;;;;;;;25.70;63.40;;;;;;5070712;28;19924;-76
2021/01/13 14:10:12;;;;;;;;;;;25.60;63.30;;;;;;5069268;28;19936;-75
2021/01/13 14:13:16;;;;;;;;;;;25.50;63.70;;;;;;5069563;28;19928;-75
2021/01/13 14:16:20;;;;;;;;;;;24.80;64.30;;;;;;5053106;28;20382;-75
2021/01/13 14:19:24;;;;;;;;;;;25.10;63.60;;;;;;5057654;28;19937;-75
2021/01/13 14:22:28;;;;;;;;;;;25.00;63.90;;;;;;5068760;28;20853;-75
2021/01/13 14:25:33;;;;;;;;;;;24.20;64.60;;;;;;5062798;28;19919;-74
2021/01/13 14:28:40;;;;;;;;;;;24.20;65.40;;;;;;5053887;28;19923;-75
2021/01/13 14:31:44;;;;;;;;;;;24.00;65.10;;;;;;5069459;28;20299;-75
2021/01/13 14:34:48;;;;;;;;;;;23.50;65.80;;;;;;5054306;28;20376;-75
2021/01/13 14:37:52;;;;;;;;;;;23.40;66.20;;;;;;5056712;28;19920;-75
2021/01/13 14:40:56;;;;;;;;;;;22.90;66.50;;;;;;5051938;28;19920;-75
2021/01/13 14:44:00;;;;;;;;;;;23.00;66.90;;;;;;5061034;28;19936;-75
2021/01/13 14:47:07;;;;;;;;;;;23.20;67.10;;;;;;5067615;28;19927;-75
2021/01/13 14:50:11;;;;;;;;;;;23.10;65.80;;;;;;5053454;28;19927;-75
2021/01/13 14:53:15;;;;;;;;;;;22.90;66.80;;;;;;5064521;28;20275;-75
2021/01/13 14:56:19;;;;;;;;;;;22.30;67.40;;;;;;5061323;28;19928;-75
2021/01/13 14:59:24;;;;;;;;;;;22.10;68.10;;;;;;5060163;28;19920;-75
2021/01/13 15:02:28;;;;;;;;;;;21.90;68.40;;;;;;5070514;28;20378;-75
2021/01/13 15:05:35;;;;;;;;;;;21.60;70.00;;;;;;5069266;28;19923;-75
2021/01/13 15:08:39;;;;;;;;;;;21.20;69.90;;;;;;5069781;28;19927;-75
2021/01/13 15:11:43;;;;;;;;;;;20.50;70.20;;;;;;5067916;28;19920;-74
2021/01/13 15:14:48;;;;;;;;;;;20.10;71.80;;;;;;5069078;28;19924;-74
2021/01/13 15:17:52;;;;;;;;;;;19.60;73.10;;;;;;5063920;28;19919;-74
2021/01/13 15:20:57;;;;;;;;;;;19.40;73.90;;;;;;5060615;28;19932;-75
2021/01/13 15:24:01;;;;;;;;;;;19.00;74.80;;;;;;5064590;28;19935;-75
2021/01/13 15:27:07;;;;;;;;;;;18.70;76.10;;;;;;5066937;28;19912;-74
2021/01/13 15:30:13;;;;;;;;;;;18.20;76.70;;;;;;5067148;28;19979;-74
2021/01/13 15:33:17;;;;;;;;;;;17.80;77.60;;;;;;5066589;28;20378;-74
2021/01/13 15:36:25;;;;;;;;;;;17.40;79.20;;;;;;5053844;28;19920;-74
2021/01/13 15:39:29;;;;;;;;;;;16.90;80.00;;;;;;5068627;28;19920;-74
2021/01/13 15:42:34;;;;;;;;;;;16.30;82.20;;;;;;5066578;28;19923;-74
2021/01/13 15:45:39;;;;;;;;;;;15.70;84.50;;;;;;5048522;28;19916;-74
2021/01/13 15:48:43;;;;;;;;;;;14.90;86.70;;;;;;5065175;28;19919;-74
2021/01/13 15:51:47;;;;;;;;;;;14.10;89.80;;;;;;5055731;28;19928;-74
2021/01/13 15:54:52;;;;;;;;;;;13.20;92.00;;;;;;5063529;28;20351;-74
2021/01/13 15:57:58;;;;;;;;;;;12.40;94.50;;;;;;5063858;28;19939;-76
2021/01/13 16:01:02;;;;;;;;;;;11.60;98.70;;;;;;5068704;28;19979;-75
2021/01/13 16:04:06;;;;;;;;;;;11.00;99.90;;;;;;5069175;28;19920;-75
2021/01/13 16:07:11;;;;;;;;;;;10.50;99.90;;;;;;5068864;28;19919;-75
2021/01/13 16:10:16;;;;;;;;;;;10.20;99.90;;;;;;5068453;28;19932;-75
2021/01/13 16:13:24;;;;;;;;;;;9.80;99.90;;;;;;5066392;28;19927;-75
2021/01/13 16:16:28;;;;;;;;;;;9.60;99.90;;;;;;5071583;28;19919;-75
2021/01/13 16:19:32;;;;;;;;;;;9.30;99.90;;;;;;5072671;28;19963;-75
2021/01/13 16:22:38;;;;;;;;;;;9.00;99.90;;;;;;5055791;28;19938;-75
2021/01/13 16:25:42;;;;;;;;;;;8.80;99.90;;;;;;5070423;28;19920;-74
2021/01/13 16:28:46;;;;;;;;;;;8.70;99.90;;;;;;5064726;28;19928;-75
2021/01/13 16:31:51;;;;;;;;;;;8.60;99.90;;;;;;5071797;28;19927;-75
2021/01/13 16:34:57;;;;;;;;;;;8.50;99.90;;;;;;5071924;28;20015;-75
2021/01/13 16:38:02;;;;;;;;;;;8.40;99.90;;;;;;5071213;28;19923;-75
2021/01/13 16:41:06;;;;;;;;;;;8.40;99.90;;;;;;5069597;28;19919;-75
2021/01/13 16:44:23;;;;;;;;;;;8.50;99.90;;;;;;5061855;28;19920;-74
2021/01/13 16:47:27;;;;;;;;;;;8.70;99.90;;;;;;5072822;28;20394;-75
2021/01/13 16:50:31;;;;;;;;;;;8.90;99.90;;;;;;5072044;28;20267;-74
2021/01/13 16:53:36;;;;;;;;;;;9.00;99.90;;;;;;5070869;28;19942;-74
2021/01/13 16:56:44;;;;;;;;;;;9.10;99.90;;;;;;5071446;28;19927;-75
2021/01/13 16:59:52;;;;;;;;;;;9.10;99.90;;;;;;5071148;28;19919;-74
2021/01/13 17:02:58;;;;;;;;;;;9.10;99.90;;;;;;5072611;28;19991;-74
2021/01/13 17:06:02;;;;;;;;;;;9.30;99.90;;;;;;5063289;28;19920;-75
2021/01/13 17:09:06;;;;;;;;;;;9.30;99.90;;;;;;5070839;28;19928;-74
2021/01/13 17:12:11;;;;;;;;;;;9.40;99.90;;;;;;5070370;28;19921;-75
2021/01/13 17:15:17;;;;;;;;;;;9.50;99.90;;;;;;5069108;28;19924;-74
2021/01/13 17:18:22;;;;;;;;;;;9.50;99.90;;;;;;5069683;28;19923;-74
2021/01/13 17:21:26;;;;;;;;;;;9.50;99.90;;;;;;5069998;28;19920;-75
2021/01/13 17:24:32;;;;;;;;;;;9.50;99.90;;;;;;5071258;28;19920;-75
2021/01/13 17:27:40;;;;;;;;;;;9.60;99.90;;;;;;5069269;28;19920;-74
2021/01/13 17:30:46;;;;;;;;;;;9.60;99.90;;;;;;5070635;28;19939;-74
2021/01/13 17:33:50;;;;;;;;;;;9.60;99.90;;;;;;5070630;28;19973;-74
2021/01/13 17:36:54;;;;;;;;;;;9.50;99.90;;;;;;5069161;28;19920;-75
2021/01/13 17:40:00;;;;;;;;;;;9.50;99.90;;;;;;5070910;28;19936;-75
2021/01/13 17:43:05;;;;;;;;;;;9.50;99.90;;;;;;5064086;28;19919;-74
2021/01/13 17:46:12;;;;;;;;;;;9.50;99.90;;;;;;5067715;28;19928;-75
2021/01/13 17:49:16;;;;;;;;;;;9.50;99.90;;;;;;5067909;28;19919;-74
2021/01/13 17:52:20;;;;;;;;;;;9.50;99.90;;;;;;5070542;28;19935;-75
2021/01/13 17:55:26;;;;;;;;;;;9.40;99.90;;;;;;5061283;28;19927;-75
2021/01/13 17:58:30;;;;;;;;;;;9.40;99.90;;;;;;5069241;28;19923;-75
2021/01/13 18:01:34;;;;;;;;;;;9.40;99.90;;;;;;5069078;28;19920;-74
2021/01/13 18:04:41;;;;;;;;;;;9.40;99.90;;;;;;5070324;28;19919;-74
2021/01/13 18:07:47;;;;;;;;;;;9.50;99.90;;;;;;5065204;28;19919;-74
2021/01/13 18:10:51;;;;;;;;;;;9.50;99.90;;;;;;5066186;28;19939;-75
2021/01/13 18:13:55;;;;;;;;;;;9.40;99.90;;;;;;5064981;28;19939;-74
2021/01/13 18:16:59;;;;;;;;;;;9.40;99.90;;;;;;5071083;28;19923;-75
2021/01/13 18:20:04;;;;;;;;;;;9.30;99.90;;;;;;5048696;28;19939;-75